createdAt,value
2019-06-07T00:03:31.678Z,12.20
2019-06-07T00:08:35.439Z,11.25
2019-06-07T00:13:37.109Z,13.22
2019-06-07T00:18:38.837Z,12.28
2019-06-07T00:23:40.559Z,11.15
2019-06-07T00:28:42.281Z,12.47
2019-06-07T00:33:44.099Z,13.85
2019-06-07T00:38:45.860Z,11.97
2019-06-07T00:43:47.589Z,14.13
2019-06-07T00:48:50.469Z,13.05
2019-06-07T00:53:52.278Z,14.07
2019-06-07T00:59:10.739Z,15.25
2019-06-07T01:03:58.347Z,15.70
2019-06-07T01:09:00.131Z,12.70
2019-06-07T01:14:02.063Z,14.05
2019-06-07T01:19:04.177Z,12.98
2019-06-07T01:24:12.013Z,14.30
2019-06-07T01:29:10.136Z,13.08
2019-06-07T01:34:12.279Z,15.63
2019-06-07T01:39:13.968Z,15.63
2019-06-07T01:44:17.753Z,16.82
2019-06-07T01:49:19.759Z,17.75
2019-06-07T01:59:27.700Z,16.37
2019-06-07T02:04:32.424Z,16.25
2019-06-07T02:09:32.469Z,15.95
2019-06-07T02:14:34.253Z,15.95
2019-06-07T02:19:35.966Z,16.25
2019-06-07T02:24:37.749Z,16.60
2019-06-07T02:29:39.461Z,29.07
2019-06-07T02:34:41.200Z,12.45
2019-06-07T02:39:42.869Z,14.70
2019-06-07T02:44:44.612Z,15.48
2019-06-07T02:49:46.353Z,16.57
2019-06-07T02:54:48.029Z,17.57
2019-06-07T03:00:06.758Z,18.55
2019-06-07T03:04:53.282Z,19.25
2019-06-07T03:09:54.967Z,20.60
2019-06-07T03:14:57.230Z,24.20
2019-06-07T03:19:59.451Z,25.75
2019-06-07T03:25:02.767Z,24.70
2019-06-07T03:30:34.980Z,21.68
2019-06-07T03:35:08.225Z,25.27
2019-06-07T03:40:09.931Z,21.07
2019-06-07T03:45:11.760Z,22.32
2019-06-07T03:50:13.518Z,18.82
2019-06-07T03:55:15.228Z,22.87
2019-06-07T04:00:17.183Z,21.87
2019-06-07T04:05:18.963Z,28.35
2019-06-07T04:10:42.740Z,26.42
2019-06-07T04:15:24.642Z,26.77
2019-06-07T04:20:26.409Z,27.90
2019-06-07T04:25:29.001Z,30.20
2019-06-07T04:30:39.536Z,28.05
2019-06-07T04:35:43.482Z,25.08
2019-06-07T04:40:45.468Z,23.87
2019-06-07T04:45:51.215Z,23.20
2019-06-07T04:50:53.832Z,22.40
2019-06-07T04:55:55.757Z,20.70
2019-06-07T05:01:03.200Z,22.60
2019-06-07T05:06:01.227Z,20.97
2019-06-07T05:11:03.437Z,24.87
2019-06-07T05:16:05.207Z,21.93
2019-06-07T05:21:07.396Z,23.87
2019-06-07T05:26:10.656Z,23.87
2019-06-07T05:31:12.797Z,29.12
2019-06-07T05:36:14.572Z,29.72
2019-06-07T05:41:16.418Z,26.00
2019-06-07T05:46:18.191Z,21.65
2019-06-07T05:51:19.949Z,21.12
2019-06-07T05:56:21.721Z,24.00
2019-06-07T06:01:42.916Z,19.17
2019-06-07T06:06:27.355Z,16.95
2019-06-07T06:11:43.007Z,18.37
2019-06-07T06:16:32.980Z,16.27
2019-06-07T06:21:36.070Z,14.25
2019-06-07T06:26:45.453Z,12.55
2019-06-07T06:32:28.244Z,17.45
2019-06-07T06:36:47.794Z,14.90
2019-06-07T06:41:58.561Z,17.90
2019-06-07T06:46:58.038Z,21.57
2019-06-07T06:51:56.712Z,14.03
2019-06-07T06:57:17.831Z,15.98
2019-06-07T07:02:03.416Z,20.27
2019-06-07T07:07:05.272Z,13.95
2019-06-07T07:12:11.719Z,13.70
2019-06-07T07:17:10.645Z,15.85
2019-06-07T07:22:12.364Z,11.10
2019-06-07T07:27:15.439Z,12.35
2019-06-07T07:32:17.341Z,14.18
2019-06-07T07:37:19.206Z,13.20
2019-06-07T07:42:21.873Z,13.22
2019-06-07T07:47:23.733Z,16.87
2019-06-07T07:52:25.566Z,12.33
2019-06-07T07:57:28.097Z,13.35
2019-06-07T08:02:31.301Z,14.50
2019-06-07T08:07:34.638Z,13.48
2019-06-07T08:12:55.643Z,11.53
2019-06-07T08:17:40.782Z,9.73
2019-06-07T08:22:42.751Z,10.28
2019-06-07T08:27:44.513Z,13.50
2019-06-07T08:32:50.974Z,21.50
2019-06-07T08:43:11.345Z,9.95
2019-06-07T08:48:04.437Z,13.03
2019-06-07T08:53:11.493Z,7.83
2019-06-07T08:58:08.734Z,12.13
2019-06-07T09:03:09.718Z,6.33
2019-06-07T09:08:29.202Z,7.12
2019-06-07T09:13:15.037Z,5.60
2019-06-07T09:18:40.937Z,7.25
2019-06-07T09:23:20.477Z,7.42
